sensor_id;sensor_type;location;lat;lon;timestamp;pressure;altitude;pressure_sealevel;temperature;humidity
42001;BME280;27689;48.390;10.856;2022-12-26T00:02:35;96209.91;;;8.74;97.89
42001;BME280;27689;48.390;10.856;2022-12-26T00:05:19;96214.13;;;8.65;98.51
42001;BME280;27689;48.390;10.856;2022-12-26T00:08:03;96219.78;;;8.70;98.31
42001;BME280;27689;48.390;10.856;2022-12-26T00:10:47;96219.78;;;8.70;98.25
42001;BME280;27689;48.390;10.856;2022-12-26T00:13:32;96218.00;;;8.71;97.83
42001;BME280;27689;48.390;10.856;2022-12-26T00:16:18;96209.75;;;8.75;98.02
42001;BME280;27689;48.390;10.856;2022-12-26T00:19:03;96217.03;;;8.72;97.77
42001;BME280;27689;48.390;10.856;2022-12-26T00:21:47;96216.47;;;8.68;98.29
42001;BME280;27689;48.390;10.856;2022-12-26T00:24:31;96211.81;;;8.72;98.13
42001;BME280;27689;48.390;10.856;2022-12-26T00:27:15;96204.66;;;8.74;97.97
42001;BME280;27689;48.390;10.856;2022-12-26T00:29:59;96212.09;;;8.78;97.59
42001;BME280;27689;48.390;10.856;2022-12-26T00:32:43;96212.53;;;8.83;97.19
42001;BME280;27689;48.390;10.856;2022-12-26T00:35:27;96218.44;;;8.86;97.29
42001;BME280;27689;48.390;10.856;2022-12-26T00:38:11;96211.81;;;8.81;97.00
42001;BME280;27689;48.390;10.856;2022-12-26T00:40:55;96212.78;;;8.80;97.26
42001;BME280;27689;48.390;10.856;2022-12-26T00:43:39;96222.41;;;8.80;97.27
42001;BME280;27689;48.390;10.856;2022-12-26T00:46:24;96224.44;;;8.76;97.57
42001;BME280;27689;48.390;10.856;2022-12-26T00:49:08;96221.84;;;8.76;97.41
42001;BME280;27689;48.390;10.856;2022-12-26T00:51:52;96229.97;;;8.73;97.55
42001;BME280;27689;48.390;10.856;2022-12-26T00:54:36;96239.72;;;8.71;97.95
42001;BME280;27689;48.390;10.856;2022-12-26T00:57:20;96239.41;;;8.65;98.10
42001;BME280;27689;48.390;10.856;2022-12-26T01:00:05;96238.81;;;8.61;98.28
42001;BME280;27689;48.390;10.856;2022-12-26T01:02:49;96247.34;;;8.63;97.96
42001;BME280;27689;48.390;10.856;2022-12-26T01:05:33;96243.63;;;8.56;97.96
42001;BME280;27689;48.390;10.856;2022-12-26T01:08:18;96241.78;;;8.47;98.64
42001;BME280;27689;48.390;10.856;2022-12-26T01:11:05;96245.78;;;8.41;98.87
42001;BME280;27689;48.390;10.856;2022-12-26T01:13:50;96247.81;;;8.38;99.02
42001;BME280;27689;48.390;10.856;2022-12-26T01:16:33;96256.28;;;8.30;99.53
42001;BME280;27689;48.390;10.856;2022-12-26T01:19:17;96263.53;;;8.27;99.98
42001;BME280;27689;48.390;10.856;2022-12-26T01:22:01;96257.84;;;8.22;100.00
42001;BME280;27689;48.390;10.856;2022-12-26T01:24:45;96253.72;;;8.19;100.00
42001;BME280;27689;48.390;10.856;2022-12-26T01:27:29;96260.34;;;8.23;100.00
42001;BME280;27689;48.390;10.856;2022-12-26T01:30:13;96261.66;;;8.18;99.94
42001;BME280;27689;48.390;10.856;2022-12-26T01:32:57;96262.91;;;8.13;100.00
42001;BME280;27689;48.390;10.856;2022-12-26T01:35:49;96251.31;;;8.06;100.00
42001;BME280;27689;48.390;10.856;2022-12-26T01:38:33;96255.69;;;8.06;100.00
42001;BME280;27689;48.390;10.856;2022-12-26T01:41:18;96264.59;;;8.03;100.00
42001;BME280;27689;48.390;10.856;2022-12-26T01:44:06;96257.06;;;8.00;100.00
42001;BME280;27689;48.390;10.856;2022-12-26T01:46:50;96261.56;;;7.98;100.00
42001;BME280;27689;48.390;10.856;2022-12-26T01:49:36;96253.22;;;7.84;100.00
42001;BME280;27689;48.390;10.856;2022-12-26T01:52:32;96258.09;;;7.77;100.00
42001;BME280;27689;48.390;10.856;2022-12-26T01:55:18;96263.00;;;7.70;100.00
42001;BME280;27689;48.390;10.856;2022-12-26T01:58:11;96270.38;;;7.65;100.00
42001;BME280;27689;48.390;10.856;2022-12-26T02:00:58;96275.25;;;7.59;100.00
42001;BME280;27689;48.390;10.856;2022-12-26T02:03:44;96276.00;;;7.50;100.00
42001;BME280;27689;48.390;10.856;2022-12-26T02:06:48;96269.19;;;7.37;100.00
42001;BME280;27689;48.390;10.856;2022-12-26T02:09:32;96264.47;;;7.20;100.00
42001;BME280;27689;48.390;10.856;2022-12-26T02:12:24;96254.91;;;7.10;100.00
42001;BME280;27689;48.390;10.856;2022-12-26T02:15:14;96263.31;;;7.13;100.00
42001;BME280;27689;48.390;10.856;2022-12-26T02:17:58;96267.72;;;7.01;100.00
42001;BME280;27689;48.390;10.856;2022-12-26T02:20:57;96257.31;;;6.90;100.00
42001;BME280;27689;48.390;10.856;2022-12-26T02:24:03;96259.31;;;6.87;100.00
42001;BME280;27689;48.390;10.856;2022-12-26T02:29:56;96263.94;;;6.83;100.00
42001;BME280;27689;48.390;10.856;2022-12-26T02:32:53;96253.19;;;6.77;100.00
42001;BME280;27689;48.390;10.856;2022-12-26T02:39:29;96266.47;;;6.62;100.00
42001;BME280;27689;48.390;10.856;2022-12-26T02:48:46;96256.41;;;6.47;100.00
42001;BME280;27689;48.390;10.856;2022-12-26T02:55:05;96261.50;;;6.37;100.00
42001;BME280;27689;48.390;10.856;2022-12-26T02:58:22;96264.44;;;6.32;100.00
42001;BME280;27689;48.390;10.856;2022-12-26T03:01:36;96261.13;;;6.30;100.00
42001;BME280;27689;48.390;10.856;2022-12-26T03:04:41;96261.56;;;6.24;100.00
42001;BME280;27689;48.390;10.856;2022-12-26T03:07:45;96262.53;;;6.23;100.00
42001;BME280;27689;48.390;10.856;2022-12-26T03:10:50;96247.13;;;6.09;100.00
42001;BME280;27689;48.390;10.856;2022-12-26T03:13:55;96257.91;;;6.05;100.00
42001;BME280;27689;48.390;10.856;2022-12-26T03:16:49;96255.41;;;6.03;100.00
42001;BME280;27689;48.390;10.856;2022-12-26T03:19:55;96250.09;;;6.05;100.00
42001;BME280;27689;48.390;10.856;2022-12-26T03:28:32;96249.16;;;6.06;100.00
42001;BME280;27689;48.390;10.856;2022-12-26T03:31:17;96246.44;;;6.07;100.00
42001;BME280;27689;48.390;10.856;2022-12-26T03:34:05;96247.03;;;6.11;100.00
42001;BME280;27689;48.390;10.856;2022-12-26T03:37:30;96249.72;;;6.09;100.00
42001;BME280;27689;48.390;10.856;2022-12-26T03:46:55;96253.22;;;6.65;100.00
42001;BME280;27689;48.390;10.856;2022-12-26T03:50:06;96256.84;;;6.85;100.00
42001;BME280;27689;48.390;10.856;2022-12-26T03:53:20;96253.50;;;7.05;100.00
42001;BME280;27689;48.390;10.856;2022-12-26T03:56:32;96267.78;;;7.22;100.00
42001;BME280;27689;48.390;10.856;2022-12-26T03:59:41;96269.75;;;7.41;100.00
42001;BME280;27689;48.390;10.856;2022-12-26T04:02:46;96265.34;;;7.53;100.00
42001;BME280;27689;48.390;10.856;2022-12-26T04:05:52;96269.53;;;7.65;100.00
42001;BME280;27689;48.390;10.856;2022-12-26T04:09:03;96266.28;;;7.72;100.00
42001;BME280;27689;48.390;10.856;2022-12-26T04:12:14;96258.47;;;7.72;100.00
42001;BME280;27689;48.390;10.856;2022-12-26T04:15:36;96263.56;;;7.74;100.00
42001;BME280;27689;48.390;10.856;2022-12-26T04:18:49;96254.03;;;7.63;100.00
42001;BME280;27689;48.390;10.856;2022-12-26T04:22:08;96258.78;;;7.58;100.00
42001;BME280;27689;48.390;10.856;2022-12-26T04:25:18;96256.75;;;7.62;100.00
42001;BME280;27689;48.390;10.856;2022-12-26T04:28:22;96268.72;;;7.64;100.00
42001;BME280;27689;48.390;10.856;2022-12-26T04:31:32;96265.28;;;7.64;100.00
42001;BME280;27689;48.390;10.856;2022-12-26T04:34:44;96253.56;;;7.58;100.00
42001;BME280;27689;48.390;10.856;2022-12-26T04:37:49;96256.56;;;7.54;100.00
42001;BME280;27689;48.390;10.856;2022-12-26T04:40:56;96259.56;;;7.70;100.00
42001;BME280;27689;48.390;10.856;2022-12-26T04:44:02;96270.69;;;7.72;100.00
42001;BME280;27689;48.390;10.856;2022-12-26T04:46:55;96256.69;;;7.73;100.00
42001;BME280;27689;48.390;10.856;2022-12-26T04:49:42;96262.63;;;7.75;100.00
42001;BME280;27689;48.390;10.856;2022-12-26T04:52:45;96265.75;;;7.90;100.00
42001;BME280;27689;48.390;10.856;2022-12-26T04:55:41;96266.06;;;7.96;100.00
42001;BME280;27689;48.390;10.856;2022-12-26T04:58:25;96262.78;;;8.15;100.00
42001;BME280;27689;48.390;10.856;2022-12-26T05:01:09;96261.66;;;8.18;100.00
42001;BME280;27689;48.390;10.856;2022-12-26T05:04:14;96268.75;;;8.27;100.00
42001;BME280;27689;48.390;10.856;2022-12-26T05:07:23;96260.03;;;8.37;100.00
42001;BME280;27689;48.390;10.856;2022-12-26T05:10:27;96255.97;;;8.44;100.00
42001;BME280;27689;48.390;10.856;2022-12-26T05:13:11;96265.28;;;8.47;100.00
42001;BME280;27689;48.390;10.856;2022-12-26T05:15:55;96276.19;;;8.52;99.69
42001;BME280;27689;48.390;10.856;2022-12-26T05:18:58;96277.84;;;8.53;99.77
42001;BME280;27689;48.390;10.856;2022-12-26T05:22:01;96272.09;;;8.59;99.10
42001;BME280;27689;48.390;10.856;2022-12-26T05:25:26;96268.81;;;8.67;98.25
42001;BME280;27689;48.390;10.856;2022-12-26T05:28:30;96281.25;;;8.74;97.77
42001;BME280;27689;48.390;10.856;2022-12-26T05:31:26;96279.59;;;8.73;97.94
42001;BME280;27689;48.390;10.856;2022-12-26T05:34:10;96278.06;;;8.71;97.99
42001;BME280;27689;48.390;10.856;2022-12-26T05:36:57;96276.56;;;8.78;97.36
42001;BME280;27689;48.390;10.856;2022-12-26T05:39:41;96289.50;;;8.79;97.66
42001;BME280;27689;48.390;10.856;2022-12-26T05:42:25;96283.31;;;8.80;96.99
42001;BME280;27689;48.390;10.856;2022-12-26T05:45:09;96276.97;;;8.73;97.78
42001;BME280;27689;48.390;10.856;2022-12-26T05:47:58;96268.19;;;8.74;97.55
42001;BME280;27689;48.390;10.856;2022-12-26T05:50:42;96265.69;;;8.73;97.77
42001;BME280;27689;48.390;10.856;2022-12-26T05:53:27;96271.06;;;8.71;98.42
42001;BME280;27689;48.390;10.856;2022-12-26T05:56:12;96262.53;;;8.79;97.90
42001;BME280;27689;48.390;10.856;2022-12-26T05:58:58;96262.03;;;8.85;97.96
42001;BME280;27689;48.390;10.856;2022-12-26T06:01:43;96270.84;;;8.94;97.63
42001;BME280;27689;48.390;10.856;2022-12-26T06:04:26;96270.00;;;8.93;97.40
42001;BME280;27689;48.390;10.856;2022-12-26T06:07:13;96255.72;;;8.97;97.06
42001;BME280;27689;48.390;10.856;2022-12-26T06:09:56;96265.88;;;8.91;97.57
42001;BME280;27689;48.390;10.856;2022-12-26T06:12:41;96265.34;;;8.87;97.83
42001;BME280;27689;48.390;10.856;2022-12-26T06:15:24;96260.94;;;8.88;97.77
42001;BME280;27689;48.390;10.856;2022-12-26T06:18:08;96257.31;;;8.79;98.50
42001;BME280;27689;48.390;10.856;2022-12-26T06:20:52;96267.50;;;8.82;98.15
42001;BME280;27689;48.390;10.856;2022-12-26T06:23:37;96259.28;;;8.87;98.47
42001;BME280;27689;48.390;10.856;2022-12-26T06:26:21;96251.56;;;8.85;98.51
42001;BME280;27689;48.390;10.856;2022-12-26T06:29:05;96259.84;;;8.90;98.42
42001;BME280;27689;48.390;10.856;2022-12-26T06:31:49;96264.25;;;8.90;98.78
42001;BME280;27689;48.390;10.856;2022-12-26T06:34:33;96259.03;;;8.90;98.57
42001;BME280;27689;48.390;10.856;2022-12-26T06:37:17;96246.09;;;8.88;98.48
42001;BME280;27689;48.390;10.856;2022-12-26T06:40:01;96251.34;;;8.98;97.89
42001;BME280;27689;48.390;10.856;2022-12-26T06:42:45;96241.56;;;8.90;98.40
42001;BME280;27689;48.390;10.856;2022-12-26T06:45:29;96252.16;;;8.89;98.49
42001;BME280;27689;48.390;10.856;2022-12-26T06:48:13;96245.41;;;8.86;99.18
42001;BME280;27689;48.390;10.856;2022-12-26T06:50:57;96244.13;;;8.80;99.08
42001;BME280;27689;48.390;10.856;2022-12-26T06:53:46;96253.19;;;8.76;99.13
42001;BME280;27689;48.390;10.856;2022-12-26T06:56:31;96260.19;;;8.76;99.21
42001;BME280;27689;48.390;10.856;2022-12-26T06:59:15;96266.09;;;8.68;99.64
42001;BME280;27689;48.390;10.856;2022-12-26T07:01:59;96257.94;;;8.62;99.96
42001;BME280;27689;48.390;10.856;2022-12-26T07:04:43;96270.16;;;8.61;100.00
42001;BME280;27689;48.390;10.856;2022-12-26T07:07:27;96275.84;;;8.66;100.00
42001;BME280;27689;48.390;10.856;2022-12-26T07:10:11;96283.28;;;8.71;100.00
42001;BME280;27689;48.390;10.856;2022-12-26T07:12:55;96278.75;;;8.73;99.55
42001;BME280;27689;48.390;10.856;2022-12-26T07:15:39;96275.06;;;8.75;99.81
42001;BME280;27689;48.390;10.856;2022-12-26T07:18:23;96284.84;;;8.83;99.44
42001;BME280;27689;48.390;10.856;2022-12-26T07:21:09;96285.66;;;8.83;99.44
42001;BME280;27689;48.390;10.856;2022-12-26T07:23:54;96279.94;;;8.90;99.00
42001;BME280;27689;48.390;10.856;2022-12-26T07:26:38;96286.16;;;9.08;97.87
42001;BME280;27689;48.390;10.856;2022-12-26T07:29:22;96287.53;;;9.12;98.21
42001;BME280;27689;48.390;10.856;2022-12-26T07:32:06;96292.06;;;9.10;98.01
42001;BME280;27689;48.390;10.856;2022-12-26T07:34:50;96297.03;;;9.13;97.93
42001;BME280;27689;48.390;10.856;2022-12-26T07:37:36;96286.47;;;9.24;97.03
42001;BME280;27689;48.390;10.856;2022-12-26T07:40:20;96286.34;;;9.26;97.27
42001;BME280;27689;48.390;10.856;2022-12-26T07:43:04;96274.78;;;9.28;97.34
42001;BME280;27689;48.390;10.856;2022-12-26T07:45:48;96275.88;;;9.26;97.50
42001;BME280;27689;48.390;10.856;2022-12-26T07:48:32;96273.97;;;9.37;96.69
42001;BME280;27689;48.390;10.856;2022-12-26T07:51:16;96277.84;;;9.33;97.02
42001;BME280;27689;48.390;10.856;2022-12-26T07:54:00;96276.19;;;9.32;97.14
42001;BME280;27689;48.390;10.856;2022-12-26T07:56:45;96286.34;;;9.35;97.32
42001;BME280;27689;48.390;10.856;2022-12-26T07:59:29;96287.59;;;9.41;97.33
42001;BME280;27689;48.390;10.856;2022-12-26T08:02:16;96292.28;;;9.37;97.72
42001;BME280;27689;48.390;10.856;2022-12-26T08:04:59;96284.31;;;9.48;97.70
42001;BME280;27689;48.390;10.856;2022-12-26T08:07:45;96286.50;;;9.53;97.18
42001;BME280;27689;48.390;10.856;2022-12-26T08:10:30;96281.31;;;9.63;97.26
42001;BME280;27689;48.390;10.856;2022-12-26T08:13:14;96287.38;;;9.63;96.89
42001;BME280;27689;48.390;10.856;2022-12-26T08:15:58;96283.25;;;9.61;97.69
42001;BME280;27689;48.390;10.856;2022-12-26T08:18:43;96274.69;;;9.59;97.86
42001;BME280;27689;48.390;10.856;2022-12-26T08:21:27;96281.59;;;9.60;97.73
42001;BME280;27689;48.390;10.856;2022-12-26T08:24:11;96279.94;;;9.59;97.68
42001;BME280;27689;48.390;10.856;2022-12-26T08:26:56;96277.56;;;9.65;97.08
42001;BME280;27689;48.390;10.856;2022-12-26T08:29:40;96301.41;;;9.72;97.62
42001;BME280;27689;48.390;10.856;2022-12-26T08:32:24;96286.13;;;9.77;97.55
42001;BME280;27689;48.390;10.856;2022-12-26T08:35:08;96291.66;;;9.93;96.25
42001;BME280;27689;48.390;10.856;2022-12-26T08:37:52;96291.09;;;9.89;96.58
42001;BME280;27689;48.390;10.856;2022-12-26T08:40:36;96285.00;;;9.99;95.59
42001;BME280;27689;48.390;10.856;2022-12-26T08:43:20;96273.47;;;9.92;96.40
42001;BME280;27689;48.390;10.856;2022-12-26T08:46:07;96267.53;;;9.89;96.80
42001;BME280;27689;48.390;10.856;2022-12-26T08:48:52;96267.41;;;9.91;97.15
42001;BME280;27689;48.390;10.856;2022-12-26T08:51:36;96267.94;;;9.95;97.08
42001;BME280;27689;48.390;10.856;2022-12-26T08:54:20;96282.25;;;10.10;95.48
42001;BME280;27689;48.390;10.856;2022-12-26T08:57:04;96292.72;;;10.29;94.33
42001;BME280;27689;48.390;10.856;2022-12-26T08:59:48;96279.78;;;10.28;93.54
42001;BME280;27689;48.390;10.856;2022-12-26T09:02:32;96269.72;;;10.33;92.65
42001;BME280;27689;48.390;10.856;2022-12-26T09:05:16;96270.41;;;10.35;93.13
42001;BME280;27689;48.390;10.856;2022-12-26T09:08:00;96272.19;;;10.34;93.33
42001;BME280;27689;48.390;10.856;2022-12-26T09:10:44;96273.41;;;10.40;93.20
42001;BME280;27689;48.390;10.856;2022-12-26T09:13:29;96272.84;;;10.46;93.01
42001;BME280;27689;48.390;10.856;2022-12-26T09:16:21;96280.78;;;10.64;91.45
42001;BME280;27689;48.390;10.856;2022-12-26T09:19:09;96283.28;;;10.65;91.55
42001;BME280;27689;48.390;10.856;2022-12-26T09:21:54;96280.94;;;10.62;92.16
42001;BME280;27689;48.390;10.856;2022-12-26T09:24:58;96268.94;;;10.59;91.53
42001;BME280;27689;48.390;10.856;2022-12-26T09:27:43;96264.94;;;10.55;92.08
42001;BME280;27689;48.390;10.856;2022-12-26T09:30:27;96290.16;;;10.66;92.47
42001;BME280;27689;48.390;10.856;2022-12-26T09:33:11;96290.31;;;10.65;91.96
42001;BME280;27689;48.390;10.856;2022-12-26T09:35:56;96293.44;;;10.78;91.22
42001;BME280;27689;48.390;10.856;2022-12-26T09:38:40;96278.25;;;10.81;90.60
42001;BME280;27689;48.390;10.856;2022-12-26T09:44:42;96295.16;;;10.97;90.13
42001;BME280;27689;48.390;10.856;2022-12-26T09:48:16;96279.81;;;11.02;89.81
42001;BME280;27689;48.390;10.856;2022-12-26T09:50:40;96274.53;;;11.11;89.73
42001;BME280;27689;48.390;10.856;2022-12-26T09:53:34;96285.72;;;11.31;89.02
42001;BME280;27689;48.390;10.856;2022-12-26T09:56:20;96286.13;;;11.36;88.49
42001;BME280;27689;48.390;10.856;2022-12-26T09:59:15;96281.53;;;11.38;88.85
42001;BME280;27689;48.390;10.856;2022-12-26T10:02:01;96280.78;;;11.46;88.19
42001;BME280;27689;48.390;10.856;2022-12-26T10:04:45;96282.84;;;11.52;88.44
42001;BME280;27689;48.390;10.856;2022-12-26T10:07:42;96284.34;;;11.54;88.12
42001;BME280;27689;48.390;10.856;2022-12-26T10:10:41;96286.00;;;11.55;87.00
42001;BME280;27689;48.390;10.856;2022-12-26T10:13:37;96268.75;;;11.53;86.84
42001;BME280;27689;48.390;10.856;2022-12-26T10:16:41;96265.50;;;11.59;87.38
42001;BME280;27689;48.390;10.856;2022-12-26T10:19:57;96273.03;;;11.72;85.71
42001;BME280;27689;48.390;10.856;2022-12-26T10:25:56;96278.75;;;11.85;85.11
42001;BME280;27689;48.390;10.856;2022-12-26T10:28:46;96272.38;;;11.87;84.20
42001;BME280;27689;48.390;10.856;2022-12-26T10:31:38;96289.84;;;11.96;83.85
42001;BME280;27689;48.390;10.856;2022-12-26T10:34:27;96282.50;;;12.00;82.44
42001;BME280;27689;48.390;10.856;2022-12-26T10:37:29;96287.75;;;12.00;82.74
42001;BME280;27689;48.390;10.856;2022-12-26T10:40:27;96298.47;;;12.07;81.63
42001;BME280;27689;48.390;10.856;2022-12-26T10:43:28;96297.63;;;12.06;80.51
42001;BME280;27689;48.390;10.856;2022-12-26T10:49:21;96305.22;;;11.91;80.32
42001;BME280;27689;48.390;10.856;2022-12-26T10:52:05;96325.41;;;11.91;81.56
42001;BME280;27689;48.390;10.856;2022-12-26T10:54:53;96324.44;;;11.92;81.60
42001;BME280;27689;48.390;10.856;2022-12-26T10:57:38;96318.22;;;11.93;81.12
42001;BME280;27689;48.390;10.856;2022-12-26T11:00:26;96323.06;;;11.88;81.91
42001;BME280;27689;48.390;10.856;2022-12-26T11:03:13;96322.03;;;11.81;82.32
42001;BME280;27689;48.390;10.856;2022-12-26T11:06:03;96335.84;;;11.73;82.60
42001;BME280;27689;48.390;10.856;2022-12-26T11:08:49;96329.94;;;11.71;83.31
42001;BME280;27689;48.390;10.856;2022-12-26T11:11:35;96356.69;;;11.75;83.20
42001;BME280;27689;48.390;10.856;2022-12-26T11:14:38;96345.53;;;11.55;86.27
42001;BME280;27689;48.390;10.856;2022-12-26T11:17:30;96340.69;;;11.50;88.90
42001;BME280;27689;48.390;10.856;2022-12-26T11:26:18;96346.53;;;11.17;95.53
42001;BME280;27689;48.390;10.856;2022-12-26T11:34:43;96349.34;;;11.06;97.73
42001;BME280;27689;48.390;10.856;2022-12-26T11:37:41;96339.50;;;10.80;99.43
42001;BME280;27689;48.390;10.856;2022-12-26T11:40:45;96365.28;;;10.75;100.00
42001;BME280;27689;48.390;10.856;2022-12-26T11:43:52;96371.78;;;10.71;100.00
42001;BME280;27689;48.390;10.856;2022-12-26T11:46:38;96369.97;;;10.72;100.00
42001;BME280;27689;48.390;10.856;2022-12-26T11:49:27;96362.41;;;10.78;100.00
42001;BME280;27689;48.390;10.856;2022-12-26T11:52:36;96369.84;;;10.83;100.00
42001;BME280;27689;48.390;10.856;2022-12-26T11:55:34;96371.78;;;10.71;100.00
42001;BME280;27689;48.390;10.856;2022-12-26T11:58:21;96371.25;;;10.58;100.00
42001;BME280;27689;48.390;10.856;2022-12-26T12:01:11;96370.00;;;10.62;100.00
42001;BME280;27689;48.390;10.856;2022-12-26T12:03:58;96374.84;;;10.47;100.00
42001;BME280;27689;48.390;10.856;2022-12-26T12:07:04;96372.06;;;10.58;100.00
42001;BME280;27689;48.390;10.856;2022-12-26T12:10:14;96373.72;;;10.59;100.00
42001;BME280;27689;48.390;10.856;2022-12-26T12:13:24;96377.34;;;10.49;100.00
42001;BME280;27689;48.390;10.856;2022-12-26T12:22:24;96385.72;;;10.62;100.00
42001;BME280;27689;48.390;10.856;2022-12-26T12:40:36;96392.50;;;10.45;100.00
42001;BME280;27689;48.390;10.856;2022-12-26T12:49:30;96398.28;;;10.49;100.00
42001;BME280;27689;48.390;10.856;2022-12-26T13:01:12;96407.13;;;10.38;100.00
42001;BME280;27689;48.390;10.856;2022-12-26T13:04:20;96401.19;;;10.27;100.00
42001;BME280;27689;48.390;10.856;2022-12-26T13:07:15;96407.28;;;10.37;100.00
42001;BME280;27689;48.390;10.856;2022-12-26T13:10:04;96398.88;;;10.23;100.00
42001;BME280;27689;48.390;10.856;2022-12-26T13:12:50;96406.84;;;10.22;100.00
42001;BME280;27689;48.390;10.856;2022-12-26T13:15:41;96403.47;;;10.10;100.00
42001;BME280;27689;48.390;10.856;2022-12-26T13:18:32;96403.88;;;9.96;100.00
42001;BME280;27689;48.390;10.856;2022-12-26T13:21:19;96406.50;;;9.86;100.00
42001;BME280;27689;48.390;10.856;2022-12-26T13:24:11;96401.53;;;9.83;100.00
42001;BME280;27689;48.390;10.856;2022-12-26T13:30:03;96415.59;;;9.92;100.00
42001;BME280;27689;48.390;10.856;2022-12-26T13:32:47;96412.00;;;9.83;100.00
42001;BME280;27689;48.390;10.856;2022-12-26T13:35:58;96418.31;;;9.81;100.00
42001;BME280;27689;48.390;10.856;2022-12-26T13:41:45;96422.72;;;9.80;100.00
42001;BME280;27689;48.390;10.856;2022-12-26T13:44:50;96410.91;;;9.76;100.00
42001;BME280;27689;48.390;10.856;2022-12-26T13:47:37;96404.25;;;9.72;100.00
42001;BME280;27689;48.390;10.856;2022-12-26T13:53:33;96409.75;;;9.69;100.00
42001;BME280;27689;48.390;10.856;2022-12-26T14:02:27;96426.53;;;9.67;100.00
42001;BME280;27689;48.390;10.856;2022-12-26T14:05:33;96429.28;;;9.65;100.00
42001;BME280;27689;48.390;10.856;2022-12-26T14:08:43;96416.75;;;9.59;100.00
42001;BME280;27689;48.390;10.856;2022-12-26T14:18:04;96428.69;;;9.52;100.00
42001;BME280;27689;48.390;10.856;2022-12-26T14:23:51;96407.44;;;9.36;100.00
42001;BME280;27689;48.390;10.856;2022-12-26T14:26:49;96423.69;;;9.30;100.00
42001;BME280;27689;48.390;10.856;2022-12-26T14:29:45;96427.25;;;9.29;100.00
42001;BME280;27689;48.390;10.856;2022-12-26T14:32:52;96441.84;;;9.31;100.00
42001;BME280;27689;48.390;10.856;2022-12-26T14:36:06;96436.88;;;9.28;100.00
42001;BME280;27689;48.390;10.856;2022-12-26T14:39:21;96431.41;;;9.31;100.00
42001;BME280;27689;48.390;10.856;2022-12-26T14:42:18;96420.50;;;9.26;100.00
42001;BME280;27689;48.390;10.856;2022-12-26T14:57:44;96416.56;;;9.11;100.00
42001;BME280;27689;48.390;10.856;2022-12-26T15:00:30;96416.13;;;9.06;100.00
42001;BME280;27689;48.390;10.856;2022-12-26T15:09:18;96401.69;;;9.02;100.00
42001;BME280;27689;48.390;10.856;2022-12-26T15:15:24;96385.31;;;9.00;100.00
42001;BME280;27689;48.390;10.856;2022-12-26T15:40:21;96352.44;;;8.76;100.00
42001;BME280;27689;48.390;10.856;2022-12-26T15:46:28;96392.44;;;8.77;100.00
42001;BME280;27689;48.390;10.856;2022-12-26T15:49:35;96391.63;;;8.76;100.00
42001;BME280;27689;48.390;10.856;2022-12-26T15:52:35;96416.25;;;8.74;100.00
42001;BME280;27689;48.390;10.856;2022-12-26T16:04:36;96382.66;;;8.69;100.00
42001;BME280;27689;48.390;10.856;2022-12-26T16:07:36;96381.00;;;8.68;100.00
42001;BME280;27689;48.390;10.856;2022-12-26T16:15:57;96395.25;;;8.64;100.00
42001;BME280;27689;48.390;10.856;2022-12-26T16:18:41;96391.44;;;8.68;100.00
42001;BME280;27689;48.390;10.856;2022-12-26T16:21:27;96386.22;;;8.68;100.00
42001;BME280;27689;48.390;10.856;2022-12-26T16:24:32;96379.47;;;8.66;100.00
42001;BME280;27689;48.390;10.856;2022-12-26T16:27:20;96378.47;;;8.57;100.00
42001;BME280;27689;48.390;10.856;2022-12-26T16:30:12;96373.94;;;8.59;100.00
42001;BME280;27689;48.390;10.856;2022-12-26T16:32:57;96380.81;;;8.60;100.00
42001;BME280;27689;48.390;10.856;2022-12-26T16:35:43;96378.34;;;8.59;100.00
42001;BME280;27689;48.390;10.856;2022-12-26T16:38:29;96377.94;;;8.63;100.00
42001;BME280;27689;48.390;10.856;2022-12-26T16:41:28;96394.84;;;8.59;100.00
42001;BME280;27689;48.390;10.856;2022-12-26T16:44:27;96390.28;;;8.61;100.00
42001;BME280;27689;48.390;10.856;2022-12-26T16:47:12;96400.25;;;8.67;100.00
42001;BME280;27689;48.390;10.856;2022-12-26T16:49:58;96405.09;;;8.72;100.00
42001;BME280;27689;48.390;10.856;2022-12-26T16:52:42;96404.06;;;8.63;100.00
42001;BME280;27689;48.390;10.856;2022-12-26T16:58:26;96389.34;;;8.62;100.00
42001;BME280;27689;48.390;10.856;2022-12-26T17:01:14;96408.72;;;8.60;100.00
42001;BME280;27689;48.390;10.856;2022-12-26T17:04:14;96434.69;;;8.61;100.00
42001;BME280;27689;48.390;10.856;2022-12-26T17:07:05;96434.56;;;8.63;100.00
42001;BME280;27689;48.390;10.856;2022-12-26T17:09:54;96429.91;;;8.66;100.00
42001;BME280;27689;48.390;10.856;2022-12-26T17:12:38;96420.06;;;8.70;100.00
42001;BME280;27689;48.390;10.856;2022-12-26T17:15:27;96397.13;;;8.73;100.00
42001;BME280;27689;48.390;10.856;2022-12-26T17:24:17;96369.81;;;8.57;100.00
42001;BME280;27689;48.390;10.856;2022-12-26T17:27:26;96380.50;;;8.54;100.00
42001;BME280;27689;48.390;10.856;2022-12-26T17:30:30;96340.50;;;8.53;100.00
42001;BME280;27689;48.390;10.856;2022-12-26T17:33:27;96337.19;;;8.51;100.00
42001;BME280;27689;48.390;10.856;2022-12-26T17:36:13;96406.38;;;8.57;100.00
42001;BME280;27689;48.390;10.856;2022-12-26T17:39:12;96402.69;;;8.59;100.00
42001;BME280;27689;48.390;10.856;2022-12-26T17:42:01;96427.69;;;8.62;100.00
42001;BME280;27689;48.390;10.856;2022-12-26T17:44:45;96421.06;;;8.58;100.00
42001;BME280;27689;48.390;10.856;2022-12-26T17:47:29;96406.25;;;8.58;100.00
42001;BME280;27689;48.390;10.856;2022-12-26T17:50:13;96418.47;;;8.58;100.00
42001;BME280;27689;48.390;10.856;2022-12-26T17:53:25;96420.44;;;8.65;100.00
42001;BME280;27689;48.390;10.856;2022-12-26T17:56:15;96401.19;;;8.66;100.00
42001;BME280;27689;48.390;10.856;2022-12-26T17:59:00;96406.63;;;8.74;100.00
42001;BME280;27689;48.390;10.856;2022-12-26T18:01:44;96397.97;;;8.74;100.00